Flight Track Log - Related Links

Times and Time Zones

All times are in EDT time to prevent confusion due to time zone crossing. See the KAP66 flight status page for this flight to view local times or setup timezone preferences in your user account.

Time Position Orientation Groundspeed Altitude Reporting Facility
EDT Latitude Longitude Course Direction KTS MPH feet Rate Location/Type
Tue 09:57:00 AM 41.4190 -70.1857 323° Northwest  Level FlightAware Approximate
Tue 09:58:00 AM 41.4453 -70.2120 323° Northwest  Level FlightAware Approximate
Tue 09:59:00 AM 41.4734 -70.2347 330° Northwest  Level FlightAware Approximate
Tue 10:00:00 AM 41.5019 -70.2567 330° Northwest  Level FlightAware Approximate
Tue 10:01:00 AM 41.5303 -70.2787 330° Northwest  Level FlightAware Approximate
Tue 10:02:00 AM 41.5588 -70.3008 330° Northwest  Level FlightAware Approximate
Tue 10:03:00 AM 41.5873 -70.3228 330° Northwest  Level FlightAware Approximate
Tue 10:04:00 AM 41.6157 -70.3449 330° Northwest  Level FlightAware Approximate
Tue 10:05:00 AM 41.6442 -70.3670 330° Northwest  Level FlightAware Approximate
Tue 10:06:00 AM 41.6726 -70.3891 330° Northwest  Level FlightAware Approximate
Tue 10:07:00 AM 41.7010 -70.4112 330° Northwest  Level FlightAware Approximate
Tue 10:07:06 AM 41.7833 -70.5000 330° Northwest 168 193 4,000  Level KA90
Tue 10:07:33 AM 41.8000 -70.5167 323° Northwest 170 196 4,000  Level KA90
Tue 10:08:00 AM 41.7295 -70.4334 330° Northwest  Level FlightAware Approximate
Tue 10:08:33 AM 41.8333 -70.5500 323° Northwest 167 192 4,000  Level KA90
Tue 10:09:00 AM 41.7579 -70.4555 330° Northwest  Level FlightAware Approximate
Tue 10:09:32 AM 41.8833 -70.5500 360° North 168 193 4,000  Level KA90
Tue 10:10:00 AM 41.7863 -70.4777 330° Northwest  Level FlightAware Approximate
Tue 10:10:39 AM 41.9333 -70.5500 360° North 167 192 4,000  Level KA90
Tue 10:11:00 AM 41.8148 -70.4999 330° Northwest  Level FlightAware Approximate
Tue 10:11:39 AM 41.9833 -70.5667 346° North 164 189 4,000  Level KA90
Tue 10:12:00 AM 41.8432 -70.5221 330° Northwest  Level FlightAware Approximate
Tue 10:12:42 AM 42.0333 -70.5667 360° North 167 192 4,000  Level KA90
Tue 10:13:45 AM 42.0833 -70.5667 360° North 167 192 4,000  Level KA90
Tue 10:14:42 AM 42.1333 -70.5667 360° North 167 192 4,000 -98 Level KA90
Tue 10:15:48 AM 42.1833 -70.5833 346° North 175 201 3,800 -281 Descending KA90
Tue 10:16:50 AM 42.2333 -70.6000 346° North 180 207 3,400 -368 Descending KA90
Tue 10:17:42 AM 42.2667 -70.6167 340° North 182 209 3,100 -209 Descending KA90
Tue 10:18:45 AM 42.3167 -70.6333 346° North 179 206 3,000 -49 Descending KA90
Tue 10:19:45 AM 42.3667 -70.6500 346° North 173 199 3,000 -100 Level KA90
Tue 10:20:45 AM 42.3833 -70.7000 294° West 160 184 2,800 -350 Descending KA90
Tue 10:21:45 AM 42.3833 -70.7667 270° West 169 194 2,300 -482 Descending KA90
Tue 10:22:37 AM 42.3833 -70.8333 270° West 172 198 1,900 -474 Descending KA90
Tue 10:23:39 AM 42.3667 -70.9000 251° West 173 199 1,400 -590 Descending KA90
Tue 10:24:39 AM 42.3667 -70.9500 270° West 149 171 700 -700 Descending KA90
Tue 10:26:00 AM 42.3500 -71.0000 270° West  Level FlightAware Approximate
Tue 10:33:00 AM 42.3630 -71.0064 270° West  Level Estimated

Login

Don't have an account? Register now (free) for customized features, flight alerts, and more!